createdAt,value
2019-04-27T00:00:43.285Z,8.00
2019-04-27T00:02:41.356Z,8.00
2019-04-27T00:04:42.936Z,8.10
2019-04-27T00:06:42.997Z,8.00
2019-04-27T00:08:39.150Z,8.00
2019-04-27T00:10:50.423Z,8.00
2019-04-27T00:12:43.866Z,8.00
2019-04-27T00:14:37.508Z,8.10
2019-04-27T00:16:40.442Z,8.10
2019-04-27T00:18:45.501Z,8.20
2019-04-27T00:20:40.177Z,8.20
2019-04-27T00:22:40.641Z,8.30
2019-04-27T00:24:35.752Z,8.30
2019-04-27T00:26:28.760Z,8.40
2019-04-27T00:28:23.313Z,8.30
2019-04-27T00:30:17.265Z,8.40
2019-04-27T00:32:10.612Z,8.40
2019-04-27T00:34:03.591Z,8.40
2019-04-27T00:35:59.564Z,8.30
2019-04-27T00:38:09.363Z,8.30
2019-04-27T00:40:04.063Z,8.30
2019-04-27T00:41:58.024Z,8.40
2019-04-27T00:43:53.191Z,8.40
2019-04-27T00:45:47.585Z,8.40
2019-04-27T00:47:39.884Z,8.40
2019-04-27T00:49:33.019Z,8.30
2019-04-27T00:51:26.028Z,8.30
2019-04-27T00:53:18.780Z,8.20
2019-04-27T00:55:13.296Z,8.10
2019-04-27T00:57:25.160Z,8.00
2019-04-27T00:59:37.831Z,8.00
2019-04-27T01:01:36.850Z,8.00
2019-04-27T01:03:34.410Z,7.90
2019-04-27T01:05:29.930Z,7.90
2019-04-27T01:07:24.943Z,7.90
2019-04-27T01:09:19.275Z,7.90
2019-04-27T01:11:14.016Z,7.80
2019-04-27T01:13:07.628Z,7.80
2019-04-27T01:14:59.828Z,7.70
2019-04-27T01:16:53.116Z,7.60
2019-04-27T01:18:45.420Z,7.60
2019-04-27T01:20:38.796Z,7.60
2019-04-27T01:22:32.160Z,7.60
2019-04-27T01:24:25.499Z,7.50
2019-04-27T01:26:20.564Z,7.50
2019-04-27T01:28:15.203Z,7.50
2019-04-27T01:30:11.333Z,7.50
2019-04-27T01:32:05.285Z,7.50
2019-04-27T01:33:59.019Z,7.50
2019-04-27T01:35:52.436Z,7.40
2019-04-27T01:37:45.760Z,7.30
2019-04-27T01:39:38.874Z,7.30
2019-04-27T01:41:31.822Z,7.30
2019-04-27T01:43:24.819Z,7.30
2019-04-27T01:45:18.680Z,7.20
2019-04-27T01:47:12.009Z,7.10
2019-04-27T01:49:05.206Z,7.10
2019-04-27T01:50:59.371Z,7.20
2019-04-27T01:52:52.739Z,7.10
2019-04-27T01:54:45.555Z,7.20
2019-04-27T01:56:39.480Z,7.10
2019-04-27T01:58:32.956Z,7.00
2019-04-27T02:00:34.253Z,7.10
2019-04-27T02:02:44.260Z,7.00
2019-04-27T02:04:42.906Z,7.00
2019-04-27T02:06:35.822Z,6.90
2019-04-27T02:08:29.004Z,6.90
2019-04-27T02:10:21.924Z,6.80
2019-04-27T02:12:15.245Z,6.90
2019-04-27T02:14:07.479Z,6.80
2019-04-27T02:16:01.468Z,6.80
2019-04-27T02:17:54.179Z,6.90
2019-04-27T02:19:47.222Z,6.90
2019-04-27T02:21:39.449Z,6.90
2019-04-27T02:23:32.221Z,6.90
2019-04-27T02:25:26.859Z,6.90
2019-04-27T02:27:21.911Z,6.90
2019-04-27T02:29:29.119Z,6.90
2019-04-27T02:31:24.364Z,6.90
2019-04-27T02:33:33.913Z,6.90
2019-04-27T02:35:26.857Z,6.90
2019-04-27T02:37:21.286Z,6.80
2019-04-27T02:39:13.521Z,6.90
2019-04-27T02:41:09.977Z,7.00
2019-04-27T02:43:03.217Z,6.90
2019-04-27T02:44:59.628Z,7.00
2019-04-27T02:46:51.860Z,6.90
2019-04-27T02:48:55.671Z,6.90
2019-04-27T02:50:39.988Z,6.90
2019-04-27T02:52:33.377Z,6.80
2019-04-27T02:54:26.858Z,6.80
2019-04-27T02:56:20.418Z,6.70
2019-04-27T02:58:13.692Z,6.70
2019-04-27T03:00:10.200Z,6.70
2019-04-27T03:02:07.573Z,6.80
2019-04-27T03:04:00.892Z,6.80
2019-04-27T03:05:54.184Z,6.80
2019-04-27T03:07:47.174Z,6.80
2019-04-27T03:09:39.686Z,6.80
2019-04-27T03:11:33.099Z,6.80
2019-04-27T03:13:37.004Z,6.70
2019-04-27T03:15:32.177Z,6.80
2019-04-27T03:17:27.128Z,6.90
2019-04-27T03:19:30.761Z,6.90
2019-04-27T03:21:25.421Z,6.90
2019-04-27T03:23:19.978Z,6.80
2019-04-27T03:25:16.110Z,6.80
2019-04-27T03:27:09.811Z,6.70
2019-04-27T03:29:03.923Z,6.80
2019-04-27T03:30:56.949Z,6.80
2019-04-27T03:32:51.362Z,6.80
2019-04-27T03:34:44.367Z,6.70
2019-04-27T03:36:39.542Z,6.70
2019-04-27T03:38:32.687Z,6.90
2019-04-27T03:40:26.169Z,7.00
2019-04-27T03:42:20.731Z,6.90
2019-04-27T03:44:14.225Z,6.70
2019-04-27T03:46:10.123Z,6.70
2019-04-27T03:48:03.007Z,6.70
2019-04-27T03:49:55.988Z,6.60
2019-04-27T03:51:51.869Z,6.60
2019-04-27T03:53:49.806Z,6.70
2019-04-27T03:55:54.004Z,6.70
2019-04-27T03:57:49.798Z,6.70
2019-04-27T04:00:03.118Z,6.70
2019-04-27T04:01:59.029Z,6.70
2019-04-27T04:03:52.613Z,6.70
2019-04-27T04:05:45.903Z,6.70
2019-04-27T04:07:40.181Z,6.60
2019-04-27T04:09:40.637Z,6.70
2019-04-27T04:11:50.476Z,6.70
2019-04-27T04:13:45.173Z,6.70
2019-04-27T04:15:55.241Z,6.70
2019-04-27T04:17:49.604Z,6.80
2019-04-27T04:19:54.405Z,6.70
2019-04-27T04:21:40.066Z,6.80
2019-04-27T04:23:32.545Z,6.80
2019-04-27T04:25:26.016Z,6.80
2019-04-27T04:27:20.070Z,6.80
2019-04-27T04:29:13.288Z,6.80
2019-04-27T04:31:10.016Z,6.80
2019-04-27T04:33:02.282Z,6.90
2019-04-27T04:35:01.133Z,6.90
2019-04-27T04:36:53.668Z,6.90
2019-04-27T04:38:45.986Z,6.90
2019-04-27T04:40:43.666Z,7.00
2019-04-27T04:42:41.576Z,6.90
2019-04-27T04:44:36.263Z,6.80
2019-04-27T04:46:40.152Z,6.90
2019-04-27T04:48:33.393Z,6.90
2019-04-27T04:50:26.969Z,6.90
2019-04-27T04:52:20.341Z,6.90
2019-04-27T04:54:13.072Z,6.90
2019-04-27T04:56:06.040Z,6.90
2019-04-27T04:57:59.130Z,7.00
2019-04-27T04:59:52.285Z,7.00
2019-04-27T05:01:44.510Z,7.00
2019-04-27T05:03:38.859Z,6.90
2019-04-27T05:05:32.289Z,6.90
2019-04-27T05:07:24.597Z,7.00
2019-04-27T05:09:19.275Z,7.00
2019-04-27T05:11:12.625Z,7.00
2019-04-27T05:13:05.563Z,7.00
2019-04-27T05:14:59.057Z,7.00
2019-04-27T05:16:52.452Z,7.00
2019-04-27T05:18:45.447Z,7.00
2019-04-27T05:20:40.373Z,7.00
2019-04-27T05:22:33.713Z,7.00
2019-04-27T05:24:26.783Z,7.00
2019-04-27T05:26:21.189Z,7.00
2019-04-27T05:28:13.973Z,6.90
2019-04-27T05:30:09.244Z,6.90
2019-04-27T05:32:02.114Z,7.00
2019-04-27T05:33:55.405Z,7.00
2019-04-27T05:35:49.111Z,7.10
2019-04-27T05:37:44.390Z,7.10
2019-04-27T05:39:38.923Z,7.20
2019-04-27T05:41:37.394Z,7.30
2019-04-27T05:43:30.176Z,7.30
2019-04-27T05:45:40.510Z,7.30
2019-04-27T05:47:35.130Z,7.30
2019-04-27T05:49:29.609Z,7.30
2019-04-27T05:51:22.923Z,7.30
2019-04-27T05:53:15.660Z,7.40
2019-04-27T05:55:08.743Z,7.50
2019-04-27T05:57:03.880Z,7.40
2019-04-27T05:58:56.988Z,7.50
2019-04-27T06:00:51.593Z,7.60
2019-04-27T06:02:44.861Z,7.70
2019-04-27T06:04:39.072Z,7.70
2019-04-27T06:06:32.722Z,7.70
2019-04-27T06:08:26.312Z,7.70
2019-04-27T06:10:19.858Z,7.90
2019-04-27T06:12:13.044Z,8.00
2019-04-27T06:14:06.384Z,8.10
2019-04-27T06:16:00.036Z,8.10
2019-04-27T06:17:52.987Z,7.90
2019-04-27T06:19:46.119Z,7.90
2019-04-27T06:21:40.153Z,7.80
2019-04-27T06:23:33.657Z,7.80
2019-04-27T06:25:26.881Z,7.80
2019-04-27T06:27:21.042Z,7.80
2019-04-27T06:29:14.296Z,7.80
2019-04-27T06:31:08.676Z,7.90
2019-04-27T06:33:02.056Z,7.70
2019-04-27T06:34:55.354Z,7.70
2019-04-27T06:36:48.727Z,7.60
2019-04-27T06:38:42.165Z,7.60
2019-04-27T06:40:35.572Z,7.50
2019-04-27T06:42:29.622Z,7.50
2019-04-27T06:44:23.575Z,7.50
2019-04-27T06:46:16.363Z,7.50
2019-04-27T06:48:09.657Z,7.60
2019-04-27T06:50:04.072Z,7.70
2019-04-27T06:51:58.540Z,7.80
2019-04-27T06:53:52.074Z,7.70
2019-04-27T06:55:45.106Z,7.80
2019-04-27T06:57:39.128Z,7.70
2019-04-27T06:59:33.097Z,7.90
2019-04-27T07:01:25.573Z,7.90
2019-04-27T07:03:19.018Z,7.90
2019-04-27T07:05:11.657Z,7.90
2019-04-27T07:07:04.701Z,8.00
2019-04-27T07:08:59.725Z,8.00
2019-04-27T07:10:52.971Z,8.10
2019-04-27T07:12:46.192Z,8.20
2019-04-27T07:14:51.798Z,8.10
2019-04-27T07:16:32.950Z,8.10
2019-04-27T07:18:28.604Z,8.10
2019-04-27T07:20:22.024Z,7.90
2019-04-27T07:22:14.895Z,8.10
2019-04-27T07:24:08.997Z,8.30
2019-04-27T07:26:02.296Z,8.30
2019-04-27T07:27:55.264Z,8.20
2019-04-27T07:29:49.506Z,8.30
2019-04-27T07:31:43.349Z,8.30
2019-04-27T07:33:37.398Z,8.20
2019-04-27T07:35:30.771Z,8.40
2019-04-27T07:37:24.260Z,8.40
2019-04-27T07:39:16.841Z,8.40
2019-04-27T07:41:10.391Z,8.40
2019-04-27T07:43:05.557Z,8.40
2019-04-27T07:45:00.085Z,8.40
2019-04-27T07:47:11.157Z,8.60
2019-04-27T07:49:04.744Z,8.70
2019-04-27T07:50:59.078Z,8.70
2019-04-27T07:52:52.470Z,8.80
2019-04-27T07:54:45.111Z,9.00
2019-04-27T07:56:38.998Z,9.00
2019-04-27T07:58:31.375Z,9.00
2019-04-27T08:00:24.432Z,9.00
2019-04-27T08:02:16.661Z,9.20
2019-04-27T08:04:10.068Z,9.30
2019-04-27T08:06:02.368Z,9.50
2019-04-27T08:07:55.399Z,9.50
2019-04-27T08:09:49.617Z,9.60
2019-04-27T08:11:44.595Z,9.80
2019-04-27T08:13:38.999Z,10.10
2019-04-27T08:15:32.763Z,10.10
2019-04-27T08:17:26.220Z,10.10
2019-04-27T08:19:19.660Z,10.00
2019-04-27T08:21:13.523Z,10.40
2019-04-27T08:23:06.729Z,10.80
2019-04-27T08:25:00.103Z,10.80
2019-04-27T08:27:00.719Z,10.70
2019-04-27T08:29:04.609Z,10.80
2019-04-27T08:31:00.415Z,10.90
2019-04-27T08:32:55.710Z,11.10
2019-04-27T08:34:49.647Z,11.30
2019-04-27T08:36:43.006Z,11.20
2019-04-27T08:38:36.199Z,11.30
2019-04-27T08:40:29.535Z,11.30
2019-04-27T08:42:22.325Z,11.40
2019-04-27T08:44:15.646Z,11.40
2019-04-27T08:46:09.058Z,11.60
2019-04-27T08:48:01.257Z,11.60
2019-04-27T08:49:55.628Z,11.60
2019-04-27T08:51:57.168Z,11.70
2019-04-27T08:53:44.815Z,11.90
2019-04-27T08:55:39.500Z,11.90
2019-04-27T08:57:32.990Z,12.10
2019-04-27T08:59:26.079Z,12.20
2019-04-27T09:01:20.790Z,12.30
2019-04-27T09:03:14.193Z,12.30
2019-04-27T09:05:09.556Z,12.20
2019-04-27T09:07:21.424Z,12.40
2019-04-27T09:09:19.393Z,12.50
2019-04-27T09:11:18.941Z,12.70
2019-04-27T09:13:19.879Z,12.60
2019-04-27T09:15:31.068Z,12.40
2019-04-27T09:17:26.974Z,12.60
2019-04-27T09:19:29.117Z,12.70
2019-04-27T09:21:22.211Z,12.70
2019-04-27T09:23:15.650Z,12.90
2019-04-27T09:25:09.390Z,12.70
2019-04-27T09:27:02.810Z,12.60
2019-04-27T09:28:55.905Z,12.60
2019-04-27T09:30:49.763Z,12.80
2019-04-27T09:32:43.124Z,12.70
2019-04-27T09:34:36.702Z,13.10
2019-04-27T09:36:30.060Z,13.40
2019-04-27T09:38:26.269Z,14.00
2019-04-27T09:40:19.108Z,14.20
2019-04-27T09:42:12.159Z,14.10
2019-04-27T09:44:05.854Z,14.10
2019-04-27T09:45:59.397Z,13.90
2019-04-27T09:47:52.245Z,13.60
2019-04-27T09:49:46.100Z,13.30
2019-04-27T09:51:39.356Z,13.40
2019-04-27T09:53:33.244Z,13.10
2019-04-27T09:55:26.486Z,12.90
2019-04-27T09:57:18.817Z,12.80
2019-04-27T09:59:11.704Z,12.80
2019-04-27T10:01:06.505Z,12.80
2019-04-27T10:02:59.891Z,12.80
2019-04-27T10:04:53.365Z,13.00
2019-04-27T10:06:48.710Z,13.00
2019-04-27T10:08:41.046Z,12.90
2019-04-27T10:10:34.576Z,12.80
2019-04-27T10:12:27.883Z,12.90
2019-04-27T10:14:22.400Z,12.90
2019-04-27T10:16:15.509Z,13.10
2019-04-27T10:18:08.951Z,13.90
2019-04-27T10:20:01.677Z,14.30
2019-04-27T10:21:55.318Z,14.60
2019-04-27T10:23:47.539Z,14.20
2019-04-27T10:25:40.312Z,14.10
2019-04-27T10:27:33.580Z,14.10
2019-04-27T10:29:26.877Z,13.90
2019-04-27T10:31:19.252Z,14.00
2019-04-27T10:33:12.606Z,14.40
2019-04-27T10:35:07.849Z,15.00
2019-04-27T10:37:00.995Z,15.30
2019-04-27T10:38:55.526Z,15.80
2019-04-27T10:40:48.925Z,15.70
2019-04-27T10:42:41.573Z,15.60
2019-04-27T10:44:35.574Z,15.30
2019-04-27T10:46:28.827Z,15.40
2019-04-27T10:48:22.107Z,16.00
2019-04-27T10:50:16.108Z,15.60
2019-04-27T10:52:09.572Z,15.10
2019-04-27T10:54:04.375Z,14.90
2019-04-27T10:55:57.480Z,14.60
2019-04-27T10:57:49.794Z,14.00
2019-04-27T10:59:42.739Z,13.80
2019-04-27T11:01:36.030Z,14.00
2019-04-27T11:03:47.183Z,14.20
2019-04-27T11:05:43.177Z,14.10
2019-04-27T11:07:37.661Z,14.30
2019-04-27T11:09:31.007Z,14.70
2019-04-27T11:11:25.907Z,15.10
2019-04-27T11:13:19.409Z,15.60
2019-04-27T11:15:12.841Z,15.60
2019-04-27T11:17:07.735Z,15.30
2019-04-27T11:19:01.169Z,15.10
2019-04-27T11:20:54.356Z,15.00
2019-04-27T11:22:47.458Z,14.90
2019-04-27T11:24:40.986Z,14.80
2019-04-27T11:26:33.361Z,15.20
2019-04-27T11:28:26.524Z,15.00
2019-04-27T11:30:20.041Z,14.70
2019-04-27T11:32:13.336Z,14.70
2019-04-27T11:34:06.671Z,14.60
2019-04-27T11:36:20.952Z,14.50
2019-04-27T11:38:14.120Z,14.50
2019-04-27T11:40:10.797Z,14.70
2019-04-27T11:42:04.259Z,14.80
2019-04-27T11:43:57.212Z,15.60
2019-04-27T11:45:50.131Z,16.10
2019-04-27T11:47:42.908Z,16.40
2019-04-27T11:49:36.287Z,16.20
2019-04-27T11:51:29.647Z,15.90
2019-04-27T11:53:23.247Z,15.40
2019-04-27T11:55:17.556Z,15.10
2019-04-27T11:57:10.984Z,15.10
2019-04-27T11:59:04.815Z,15.10
2019-04-27T12:00:57.880Z,15.40
2019-04-27T12:02:50.980Z,15.80
2019-04-27T12:04:44.052Z,15.80
2019-04-27T12:06:37.685Z,15.50
2019-04-27T12:08:29.989Z,15.60
2019-04-27T12:10:22.989Z,15.70
2019-04-27T12:12:21.537Z,15.70
2019-04-27T12:14:10.369Z,16.50
2019-04-27T12:16:03.920Z,17.30
2019-04-27T12:17:58.166Z,18.40
2019-04-27T12:19:51.734Z,18.60
2019-04-27T12:21:46.430Z,18.20
2019-04-27T12:23:41.474Z,17.50
2019-04-27T12:25:37.057Z,17.40
2019-04-27T12:27:40.439Z,17.20
2019-04-27T12:29:51.914Z,16.90
2019-04-27T12:31:48.767Z,16.10
2019-04-27T12:33:40.171Z,15.80
2019-04-27T12:35:33.456Z,15.70
2019-04-27T12:37:26.804Z,15.10
2019-04-27T12:39:20.316Z,14.60
2019-04-27T12:41:13.858Z,14.40
2019-04-27T12:43:06.203Z,14.50
2019-04-27T12:44:59.424Z,14.40
2019-04-27T12:46:52.849Z,14.30
2019-04-27T12:48:46.148Z,14.10
2019-04-27T12:50:39.186Z,13.80
2019-04-27T12:52:32.304Z,13.90
2019-04-27T12:54:31.657Z,14.00
2019-04-27T12:56:45.776Z,14.20
2019-04-27T12:58:40.896Z,14.40
2019-04-27T13:00:36.007Z,14.60
2019-04-27T13:02:30.820Z,14.60
2019-04-27T13:04:25.070Z,14.40
2019-04-27T13:06:17.985Z,14.30
2019-04-27T13:08:10.318Z,14.50
2019-04-27T13:10:05.951Z,14.80
2019-04-27T13:11:59.364Z,15.20
2019-04-27T13:13:52.293Z,15.30
2019-04-27T13:15:46.293Z,15.50
2019-04-27T13:17:39.391Z,15.70
2019-04-27T13:19:31.886Z,15.80
2019-04-27T13:21:26.264Z,15.80
2019-04-27T13:23:19.934Z,16.30
2019-04-27T13:25:14.319Z,16.80
2019-04-27T13:27:07.679Z,17.20
2019-04-27T13:29:00.117Z,17.30
2019-04-27T13:30:52.871Z,17.30
2019-04-27T13:32:47.109Z,17.50
2019-04-27T13:34:40.458Z,17.80
2019-04-27T13:36:33.463Z,17.00
2019-04-27T13:38:26.726Z,16.90
2019-04-27T13:40:21.503Z,16.00
2019-04-27T13:42:15.644Z,16.10
2019-04-27T13:44:08.859Z,15.80
2019-04-27T13:46:16.304Z,15.50
2019-04-27T13:48:11.158Z,15.30
2019-04-27T13:50:10.359Z,14.90
2019-04-27T13:52:06.103Z,14.80
2019-04-27T13:54:00.027Z,15.10
2019-04-27T13:55:53.252Z,16.20
2019-04-27T13:57:50.480Z,17.40
2019-04-27T13:59:39.499Z,17.20
2019-04-27T14:01:33.200Z,17.10
2019-04-27T14:03:26.501Z,17.70
2019-04-27T14:05:19.756Z,19.10
2019-04-27T14:07:12.984Z,20.60
2019-04-27T14:09:09.220Z,20.60
2019-04-27T14:11:05.114Z,20.70
2019-04-27T14:12:59.097Z,21.00
2019-04-27T14:14:52.745Z,20.40
2019-04-27T14:16:45.838Z,21.30
2019-04-27T14:18:38.765Z,21.60
2019-04-27T14:20:31.921Z,21.40
2019-04-27T14:22:25.264Z,20.30
2019-04-27T14:24:27.919Z,20.60
2019-04-27T14:26:12.813Z,20.80
2019-04-27T14:28:06.099Z,20.80
2019-04-27T14:29:59.546Z,20.10
2019-04-27T14:31:52.818Z,20.10
2019-04-27T14:33:45.731Z,20.40
2019-04-27T14:35:38.590Z,20.50
2019-04-27T14:37:30.971Z,19.60
2019-04-27T14:39:24.031Z,18.90
2019-04-27T14:41:19.165Z,17.90
2019-04-27T14:43:12.459Z,17.20
2019-04-27T14:45:09.036Z,16.90
2019-04-27T14:47:03.683Z,17.50
2019-04-27T14:48:56.740Z,17.50
2019-04-27T14:50:50.018Z,17.40
2019-04-27T14:52:44.963Z,16.70
2019-04-27T14:54:47.334Z,16.20
2019-04-27T14:56:33.008Z,15.60
2019-04-27T14:58:25.324Z,15.40
2019-04-27T15:00:21.284Z,15.00
2019-04-27T15:02:14.497Z,15.00
2019-04-27T15:04:06.846Z,14.80
2019-04-27T15:06:00.004Z,15.10
2019-04-27T15:07:54.643Z,15.10
2019-04-27T15:09:49.729Z,15.10
2019-04-27T15:11:42.925Z,14.90
2019-04-27T15:13:37.914Z,15.00
2019-04-27T15:15:32.589Z,15.00
2019-04-27T15:17:26.660Z,15.10
2019-04-27T15:19:21.538Z,15.00
2019-04-27T15:21:14.613Z,15.20
2019-04-27T15:23:07.647Z,14.80
2019-04-27T15:25:13.103Z,14.40
2019-04-27T15:26:58.992Z,14.40
2019-04-27T15:28:52.193Z,14.20
2019-04-27T15:30:53.108Z,14.20
2019-04-27T15:32:54.035Z,14.30
2019-04-27T15:34:51.523Z,14.10
2019-04-27T15:37:02.855Z,14.10
2019-04-27T15:39:13.639Z,14.00
2019-04-27T15:41:08.895Z,13.90
2019-04-27T15:43:05.063Z,13.80
2019-04-27T15:44:58.573Z,14.00
2019-04-27T15:46:51.618Z,14.20
2019-04-27T15:48:44.968Z,14.60
2019-04-27T15:50:38.753Z,14.70
2019-04-27T15:52:33.270Z,14.90
2019-04-27T15:54:32.056Z,14.90
2019-04-27T15:56:21.929Z,14.90
2019-04-27T15:58:20.822Z,14.80
2019-04-27T16:00:17.550Z,14.50
2019-04-27T16:02:11.764Z,14.70
2019-04-27T16:04:02.442Z,14.70
2019-04-27T16:05:58.756Z,14.50
2019-04-27T16:07:51.675Z,14.80
2019-04-27T16:09:44.619Z,15.20
2019-04-27T16:11:38.143Z,15.20
2019-04-27T16:13:33.171Z,15.20
2019-04-27T16:15:27.867Z,15.20
2019-04-27T16:17:21.484Z,14.90
2019-04-27T16:19:14.547Z,14.70
2019-04-27T16:21:10.574Z,14.70
2019-04-27T16:23:04.172Z,14.80
2019-04-27T16:24:58.102Z,14.80
2019-04-27T16:26:55.776Z,14.70
2019-04-27T16:28:49.675Z,14.80
2019-04-27T16:30:45.721Z,14.90
2019-04-27T16:32:40.305Z,14.80
2019-04-27T16:34:32.996Z,14.70
2019-04-27T16:36:26.418Z,14.40
2019-04-27T16:38:21.264Z,14.40
2019-04-27T16:40:17.733Z,14.40
2019-04-27T16:42:14.133Z,14.30
2019-04-27T16:44:06.737Z,14.10
2019-04-27T16:46:04.342Z,14.10
2019-04-27T16:47:56.460Z,14.00
2019-04-27T16:49:49.295Z,13.80
2019-04-27T16:51:42.473Z,13.90
2019-04-27T16:53:38.220Z,14.00
2019-04-27T16:55:34.239Z,13.90
2019-04-27T16:57:28.132Z,13.80
2019-04-27T16:59:39.802Z,14.00
2019-04-27T17:01:18.387Z,13.90
2019-04-27T17:03:11.807Z,13.80
2019-04-27T17:05:05.631Z,13.80
2019-04-27T17:06:59.024Z,13.60
2019-04-27T17:08:57.294Z,13.60
2019-04-27T17:10:47.688Z,13.50
2019-04-27T17:12:43.874Z,13.50
2019-04-27T17:14:49.025Z,13.60
2019-04-27T17:16:58.037Z,13.50
2019-04-27T17:19:04.670Z,13.60
2019-04-27T17:21:00.906Z,13.50
2019-04-27T17:22:53.366Z,13.40
2019-04-27T17:24:49.268Z,13.40
2019-04-27T17:26:43.454Z,13.50
2019-04-27T17:28:43.616Z,13.60
2019-04-27T17:30:37.953Z,13.60
2019-04-27T17:32:35.932Z,13.50
2019-04-27T17:34:28.992Z,13.60
2019-04-27T17:36:21.327Z,13.70
2019-04-27T17:38:15.806Z,13.60
2019-04-27T17:40:09.983Z,13.50
2019-04-27T17:42:02.901Z,13.50
2019-04-27T17:43:55.171Z,13.50
2019-04-27T17:45:48.616Z,13.50
2019-04-27T17:47:41.970Z,13.50
2019-04-27T17:49:35.071Z,13.30
2019-04-27T17:51:28.567Z,13.30
2019-04-27T17:53:25.206Z,13.30
2019-04-27T17:55:17.805Z,13.10
2019-04-27T17:57:13.590Z,12.30
2019-04-27T17:59:11.989Z,11.70
2019-04-27T18:01:01.275Z,11.30
2019-04-27T18:02:53.531Z,11.00
2019-04-27T18:04:46.239Z,10.80
2019-04-27T18:06:39.292Z,10.80
2019-04-27T18:08:32.643Z,10.70
2019-04-27T18:10:27.794Z,10.70
2019-04-27T18:12:20.838Z,10.60
2019-04-27T18:14:14.746Z,10.50
2019-04-27T18:16:09.503Z,10.60
2019-04-27T18:18:18.724Z,10.70
2019-04-27T18:20:14.219Z,10.70
2019-04-27T18:22:07.199Z,10.70
2019-04-27T18:24:08.657Z,10.70
2019-04-27T18:26:03.768Z,10.70
2019-04-27T18:28:01.448Z,10.60
2019-04-27T18:29:59.268Z,10.40
2019-04-27T18:31:54.436Z,10.20
2019-04-27T18:33:45.443Z,10.10
2019-04-27T18:35:38.743Z,10.10
2019-04-27T18:37:32.085Z,10.00
2019-04-27T18:39:25.188Z,10.00
2019-04-27T18:41:18.421Z,9.90
2019-04-27T18:43:12.619Z,9.80
2019-04-27T18:45:06.964Z,9.70
2019-04-27T18:47:02.348Z,9.60
2019-04-27T18:48:58.468Z,9.30
2019-04-27T18:50:59.132Z,9.20
2019-04-27T18:52:53.847Z,8.90
2019-04-27T18:54:47.044Z,8.90
2019-04-27T18:56:41.699Z,8.80
2019-04-27T18:58:35.139Z,8.70
2019-04-27T19:00:29.494Z,8.70
2019-04-27T19:02:22.778Z,8.60
2019-04-27T19:04:15.980Z,8.50
2019-04-27T19:06:08.774Z,8.50
2019-04-27T19:08:01.471Z,8.50
2019-04-27T19:09:53.876Z,8.40
2019-04-27T19:11:55.764Z,8.40
2019-04-27T19:13:41.924Z,8.30
2019-04-27T19:15:34.215Z,8.40
2019-04-27T19:17:28.210Z,8.40
2019-04-27T19:19:21.796Z,8.30
2019-04-27T19:21:14.831Z,8.30
2019-04-27T19:23:08.792Z,8.30
2019-04-27T19:25:02.116Z,8.20
2019-04-27T19:26:58.647Z,8.10
2019-04-27T19:28:58.273Z,8.20
2019-04-27T19:30:52.985Z,8.10
2019-04-27T19:32:46.135Z,8.00
2019-04-27T19:34:40.043Z,8.00
2019-04-27T19:36:33.648Z,8.00
2019-04-27T19:38:28.855Z,7.90
2019-04-27T19:40:21.647Z,7.90
2019-04-27T19:42:14.925Z,7.90
2019-04-27T19:44:10.224Z,7.90
2019-04-27T19:46:04.080Z,7.90
2019-04-27T19:47:57.505Z,7.90
2019-04-27T19:49:50.940Z,7.90
2019-04-27T19:51:44.417Z,8.00
2019-04-27T19:53:39.300Z,7.90
2019-04-27T19:55:33.230Z,8.00
2019-04-27T19:57:33.149Z,8.00
2019-04-27T19:59:24.297Z,7.90
2019-04-27T20:01:35.690Z,7.90
2019-04-27T20:03:30.174Z,7.80
2019-04-27T20:05:23.163Z,7.90
2019-04-27T20:07:17.810Z,7.80
2019-04-27T20:09:19.256Z,7.80
2019-04-27T20:11:13.051Z,7.70
2019-04-27T20:13:07.210Z,7.50
2019-04-27T20:15:02.267Z,7.50
2019-04-27T20:16:56.071Z,7.50
2019-04-27T20:18:48.571Z,7.50
2019-04-27T20:20:42.174Z,7.50
2019-04-27T20:22:35.677Z,7.60
2019-04-27T20:24:28.918Z,7.60
2019-04-27T20:26:22.103Z,7.60
2019-04-27T20:28:14.911Z,7.70
2019-04-27T20:30:08.623Z,7.70
2019-04-27T20:32:03.134Z,7.70
2019-04-27T20:33:56.819Z,7.50
2019-04-27T20:35:51.023Z,7.50
2019-04-27T20:37:44.240Z,7.60
2019-04-27T20:39:37.611Z,7.50
2019-04-27T20:41:31.871Z,7.50
2019-04-27T20:43:25.320Z,7.60
2019-04-27T20:45:18.473Z,7.60
2019-04-27T20:47:11.561Z,7.70
2019-04-27T20:49:06.084Z,7.80
2019-04-27T20:51:01.170Z,7.80
2019-04-27T20:52:55.059Z,7.90
2019-04-27T20:54:48.259Z,7.80
2019-04-27T20:56:41.575Z,7.80
2019-04-27T20:58:34.975Z,7.90
2019-04-27T21:00:27.252Z,7.80
2019-04-27T21:02:32.104Z,7.80
2019-04-27T21:04:35.604Z,7.80
2019-04-27T21:06:30.489Z,7.80
2019-04-27T21:08:25.232Z,7.70
2019-04-27T21:10:18.333Z,7.80
2019-04-27T21:12:11.732Z,7.70
2019-04-27T21:14:04.729Z,7.70
2019-04-27T21:15:57.707Z,7.70
2019-04-27T21:17:51.298Z,7.60
2019-04-27T21:19:44.426Z,7.60
2019-04-27T21:21:37.611Z,7.60
2019-04-27T21:23:31.300Z,7.60
2019-04-27T21:25:24.426Z,7.50
2019-04-27T21:27:16.838Z,7.50
2019-04-27T21:29:11.560Z,7.50
2019-04-27T21:31:04.464Z,7.40
2019-04-27T21:32:57.932Z,7.50
2019-04-27T21:34:51.518Z,7.40
2019-04-27T21:36:45.293Z,7.30
2019-04-27T21:38:38.499Z,7.40
2019-04-27T21:40:31.965Z,7.30
2019-04-27T21:42:25.304Z,7.40
2019-04-27T21:44:18.372Z,7.40
2019-04-27T21:46:11.445Z,7.50
2019-04-27T21:48:05.617Z,7.60
2019-04-27T21:50:00.694Z,7.60
2019-04-27T21:52:07.193Z,7.60
2019-04-27T21:54:11.071Z,7.60
2019-04-27T21:56:05.887Z,7.60
2019-04-27T21:57:59.159Z,7.60
2019-04-27T21:59:52.245Z,7.60
2019-04-27T22:01:45.343Z,7.60
2019-04-27T22:03:39.992Z,7.60
2019-04-27T22:05:32.779Z,7.70
2019-04-27T22:07:25.467Z,7.70
2019-04-27T22:09:19.033Z,7.60
2019-04-27T22:11:12.168Z,7.70
2019-04-27T22:13:05.227Z,7.70
2019-04-27T22:14:57.504Z,7.80
2019-04-27T22:16:51.895Z,7.70
2019-04-27T22:18:45.528Z,7.60
2019-04-27T22:20:37.983Z,7.60
2019-04-27T22:22:44.983Z,7.50
2019-04-27T22:24:42.801Z,7.40
2019-04-27T22:26:34.292Z,7.40
2019-04-27T22:28:27.241Z,7.30
2019-04-27T22:30:21.060Z,7.30
2019-04-27T22:32:14.784Z,7.30
2019-04-27T22:34:08.084Z,7.40
2019-04-27T22:36:01.912Z,7.30
2019-04-27T22:37:56.147Z,7.20
2019-04-27T22:39:52.882Z,7.30
2019-04-27T22:41:56.583Z,7.20
2019-04-27T22:44:06.672Z,7.30
2019-04-27T22:46:01.252Z,7.40
2019-04-27T22:47:55.683Z,7.40
2019-04-27T22:49:48.022Z,7.20
2019-04-27T22:51:43.051Z,7.20
2019-04-27T22:53:36.088Z,7.20
2019-04-27T22:55:30.896Z,7.30
2019-04-27T22:57:25.502Z,7.20
2019-04-27T22:59:21.467Z,7.20
2019-04-27T23:01:19.367Z,7.10
2019-04-27T23:03:13.836Z,7.10
2019-04-27T23:05:06.993Z,7.10
2019-04-27T23:07:00.654Z,7.00
2019-04-27T23:08:55.288Z,7.10
2019-04-27T23:10:48.653Z,7.10
2019-04-27T23:12:42.179Z,7.20
2019-04-27T23:14:36.563Z,7.00
2019-04-27T23:16:31.193Z,7.00
2019-04-27T23:18:24.231Z,6.90
2019-04-27T23:20:16.595Z,6.80
2019-04-27T23:22:11.077Z,6.70
2019-04-27T23:24:04.417Z,6.80
2019-04-27T23:25:56.668Z,6.80
2019-04-27T23:27:51.446Z,6.70
2019-04-27T23:29:44.858Z,6.70
2019-04-27T23:31:48.458Z,6.80
2019-04-27T23:33:43.191Z,6.70
2019-04-27T23:35:36.276Z,6.80
2019-04-27T23:37:28.587Z,6.80
2019-04-27T23:39:21.822Z,6.70
2019-04-27T23:41:14.795Z,6.90
2019-04-27T23:43:07.561Z,6.80
2019-04-27T23:45:01.519Z,7.00
2019-04-27T23:46:54.484Z,7.00
2019-04-27T23:48:51.289Z,6.90
2019-04-27T23:50:45.659Z,6.70
2019-04-27T23:52:52.606Z,6.60
2019-04-27T23:54:45.939Z,6.70
2019-04-27T23:56:38.868Z,6.80
2019-04-27T23:58:32.405Z,6.90
